Kamikawa Maru — JG5687 — position and weather

sailwx.info

Track history (hours):
 
Tides and Currents Weather Stations Pressure Air Temp Water Temp Dewpoint Dewpoint Depression Visibility Wind Speed Wind Dir Waves Ship Positions

Kamikawa Maru

Last reported at 2014-Sep-16 21:13 UTC. Time now 2014-Sep-19 07:49 UTC.
Position N 37°05' E 141°09'.

Length 162 m; draft 6.8 m.

Type: Cargo ship. MMSI: 431101012.

Date/timePositionNaut miles runAvg speedWind from/ knotsBaromVisibWave heightAir tempDewpointWater temp
2014-Sep-16 21:13N 37°05' E 141°09'7319.2
2014-Sep-16 17:26N 35°53' E 140°57'1719.3
2014-Sep-16 16:32N 35°36' E 140°53'1919.3
2014-Sep-16 15:33N 35°20' E 140°40'2120.9
2014-Sep-16 14:32N 35°05' E 140°22'2321.6
2014-Sep-16 13:29N 34°53' E 139°58'1415.4
2014-Sep-16 12:33N 35°01' E 139°43'1616.2
2014-Sep-16 11:33N 35°17' E 139°45'1414.4
2014-Sep-16 10:34N 35°31' E 139°51'9 7.8
2014-Sep-16 09:28N 35°38' E 139°46'0 0.1
2014-Sep-16 08:31N 35°38' E 139°46'0 0.0
2014-Sep-16 07:28N 35°38' E 139°46'0 0.0
2014-Sep-16 06:19N 35°38' E 139°46'0 0.0
2014-Sep-16 05:31N 35°38' E 139°46'0 0.0
2014-Sep-16 04:31N 35°38' E 139°46'0 0.0
2014-Sep-16 03:31N 35°38' E 139°46'0 0.0
2014-Sep-16 02:28N 35°38' E 139°46'0 0.0
2014-Sep-16 01:28N 35°38' E 139°46'0 0.0
2014-Sep-16 00:31N 35°38' E 139°46'0 0.0
2014-Sep-15 23:33N 35°38' E 139°46'9 8.6
2014-Sep-15 22:33N 35°32' E 139°54'0 0.0
2014-Sep-15 21:33N 35°32' E 139°54'0 0.0
2014-Sep-15 20:30N 35°32' E 139°54'0 0.0
2014-Sep-15 19:24N 35°32' E 139°54'0 0.1
2014-Sep-15 18:33N 35°32' E 139°54'1515.0
2014-Sep-15 17:33N 35°20' E 139°44'1514.5
2014-Sep-15 16:33N 35°05' E 139°44'66 2.3
2014-Sep-14 12:19N 34°32' E 138°35'5319.3
2014-Sep-14 09:33N 34°59' E 139°31'1918.7
2014-Sep-14 08:33N 35°13' E 139°46'1313.0
2014-Sep-14 07:33N 35°26' E 139°45'1212.2
2014-Sep-14 06:33N 35°38' E 139°46'0 0.1
2014-Sep-14 05:33N 35°38' E 139°46'0 0.0
2014-Sep-14 04:33N 35°38' E 139°46'0 0.0
2014-Sep-14 03:30N 35°38' E 139°46'0 0.0
2014-Sep-14 02:30N 35°38' E 139°46'0 0.0
2014-Sep-14 01:33N 35°38' E 139°46'24 6.1
2014-Sep-13 21:33N 35°14' E 139°47'1212.2
2014-Sep-13 20:33N 35°02' E 139°43'1413.5
2014-Sep-13 19:33N 34°51' E 139°53'1616.3
2014-Sep-13 18:33N 34°58' E 140°11'1716.8
2014-Sep-13 17:31N 35°07' E 140°29'1717.2
2014-Sep-13 16:31N 35°21' E 140°41'1717.6
2014-Sep-13 15:33N 35°35' E 140°53'1817.8
2014-Sep-13 14:33N 35°52' E 140°59'1919.0
2014-Sep-13 13:33N 36°11' E 141°02'2318.7
2014-Sep-13 12:20N 36°34' E 141°07'1519.0
2014-Sep-13 11:33N 36°48' E 141°10'  
2014-Sep-09 15:11N 35°28' E 140°46'1218.5
2014-Sep-09 14:33N 35°18' E 140°38'1919.0
2014-Sep-09 13:33N 35°05' E 140°21'2019.8
2014-Sep-09 12:34N 34°55' E 140°01'1514.8
2014-Sep-09 11:34N 34°59' E 139°43'1716.8
2014-Sep-09 10:33N 35°16' E 139°46'1313.2
2014-Sep-09 09:33N 35°29' E 139°50'10 9.5
2014-Sep-09 08:31N 35°38' E 139°46'0 0.0
2014-Sep-09 07:28N 35°38' E 139°46'0 0.1
2014-Sep-09 06:31N 35°38' E 139°46'0 0.0
2014-Sep-09 05:25N 35°38' E 139°46'0 0.1
2014-Sep-09 04:28N 35°38' E 139°46'0 0.0
2014-Sep-09 03:28N 35°38' E 139°46'0 0.0
2014-Sep-09 02:31N 35°38' E 139°46'0 0.0
2014-Sep-09 01:31N 35°38' E 139°46'0 0.0
2014-Sep-09 00:31N 35°38' E 139°46'0 0.0
2014-Sep-08 23:28N 35°38' E 139°46'0 0.1
2014-Sep-08 22:33N 35°38' E 139°46'8 7.4
2014-Sep-08 21:31N 35°34' E 139°53'0 0.0
2014-Sep-08 20:28N 35°34' E 139°53'0 0.0
2014-Sep-08 19:31N 35°34' E 139°53'0 0.1
2014-Sep-08 18:31N 35°34' E 139°53'1313.2
2014-Sep-08 17:33N 35°23' E 139°46'1211.8
2014-Sep-08 16:33N 35°11' E 139°47'1818.2
2014-Sep-08 15:34N 34°57' E 139°32'2419.4
2014-Sep-08 14:20N 34°41' E 139°11'3217.8
2014-Sep-08 12:33N 34°30' E 138°34'180 7.1
2014-Sep-07 11:13N 34°01' E 134°59'1218.7
2014-Sep-07 10:33N 34°13' E 134°58'1616.2
2014-Sep-07 09:33N 34°29' E 135°03'9 8.6
2014-Sep-07 08:34N 34°37' E 134°60'1716.8
2014-Sep-07 07:31N 34°30' E 134°40'  
Track history (hours):
 
Tides and Currents Weather Stations Pressure Air Temp Water Temp Dewpoint Dewpoint Depression Visibility Wind Speed Wind Dir Waves Ship Positions

Kamikawa Maru

Last reported at 2014-Sep-16 21:13 UTC. Time now 2014-Sep-19 07:49 UTC.
Position N 37°05' E 141°09'.

Length 162 m; draft 6.8 m.

Type: Cargo ship. MMSI: 431101012.

Date/timePositionNaut miles runAvg speedWind from/ knotsBaromVisibWave heightAir tempDewpointWater temp
2014-Sep-16 21:13N 37°05' E 141°09'7319.2
2014-Sep-16 17:26N 35°53' E 140°57'1719.3
2014-Sep-16 16:32N 35°36' E 140°53'1919.3
2014-Sep-16 15:33N 35°20' E 140°40'2120.9
2014-Sep-16 14:32N 35°05' E 140°22'2321.6
2014-Sep-16 13:29N 34°53' E 139°58'1415.4
2014-Sep-16 12:33N 35°01' E 139°43'1616.2
2014-Sep-16 11:33N 35°17' E 139°45'1414.4
2014-Sep-16 10:34N 35°31' E 139°51'9 7.8
2014-Sep-16 09:28N 35°38' E 139°46'0 0.1
2014-Sep-16 08:31N 35°38' E 139°46'0 0.0
2014-Sep-16 07:28N 35°38' E 139°46'0 0.0
2014-Sep-16 06:19N 35°38' E 139°46'0 0.0
2014-Sep-16 05:31N 35°38' E 139°46'0 0.0
2014-Sep-16 04:31N 35°38' E 139°46'0 0.0
2014-Sep-16 03:31N 35°38' E 139°46'0 0.0
2014-Sep-16 02:28N 35°38' E 139°46'0 0.0
2014-Sep-16 01:28N 35°38' E 139°46'0 0.0
2014-Sep-16 00:31N 35°38' E 139°46'0 0.0
2014-Sep-15 23:33N 35°38' E 139°46'9 8.6
2014-Sep-15 22:33N 35°32' E 139°54'0 0.0
2014-Sep-15 21:33N 35°32' E 139°54'0 0.0
2014-Sep-15 20:30N 35°32' E 139°54'0 0.0
2014-Sep-15 19:24N 35°32' E 139°54'0 0.1
2014-Sep-15 18:33N 35°32' E 139°54'1515.0
2014-Sep-15 17:33N 35°20' E 139°44'1514.5
2014-Sep-15 16:33N 35°05' E 139°44'66 2.3
2014-Sep-14 12:19N 34°32' E 138°35'5319.3
2014-Sep-14 09:33N 34°59' E 139°31'1918.7
2014-Sep-14 08:33N 35°13' E 139°46'1313.0
2014-Sep-14 07:33N 35°26' E 139°45'1212.2
2014-Sep-14 06:33N 35°38' E 139°46'0 0.1
2014-Sep-14 05:33N 35°38' E 139°46'0 0.0
2014-Sep-14 04:33N 35°38' E 139°46'0 0.0
2014-Sep-14 03:30N 35°38' E 139°46'0 0.0
2014-Sep-14 02:30N 35°38' E 139°46'0 0.0
2014-Sep-14 01:33N 35°38' E 139°46'24 6.1
2014-Sep-13 21:33N 35°14' E 139°47'1212.2
2014-Sep-13 20:33N 35°02' E 139°43'1413.5
2014-Sep-13 19:33N 34°51' E 139°53'1616.3
2014-Sep-13 18:33N 34°58' E 140°11'1716.8
2014-Sep-13 17:31N 35°07' E 140°29'1717.2
2014-Sep-13 16:31N 35°21' E 140°41'1717.6
2014-Sep-13 15:33N 35°35' E 140°53'1817.8
2014-Sep-13 14:33N 35°52' E 140°59'1919.0
2014-Sep-13 13:33N 36°11' E 141°02'2318.7
2014-Sep-13 12:20N 36°34' E 141°07'1519.0
2014-Sep-13 11:33N 36°48' E 141°10'  
2014-Sep-09 15:11N 35°28' E 140°46'1218.5
2014-Sep-09 14:33N 35°18' E 140°38'1919.0
2014-Sep-09 13:33N 35°05' E 140°21'2019.8
2014-Sep-09 12:34N 34°55' E 140°01'1514.8
2014-Sep-09 11:34N 34°59' E 139°43'1716.8
2014-Sep-09 10:33N 35°16' E 139°46'1313.2
2014-Sep-09 09:33N 35°29' E 139°50'10 9.5
2014-Sep-09 08:31N 35°38' E 139°46'0 0.0
2014-Sep-09 07:28N 35°38' E 139°46'0 0.1
2014-Sep-09 06:31N 35°38' E 139°46'0 0.0
2014-Sep-09 05:25N 35°38' E 139°46'0 0.1
2014-Sep-09 04:28N 35°38' E 139°46'0 0.0
2014-Sep-09 03:28N 35°38' E 139°46'0 0.0
2014-Sep-09 02:31N 35°38' E 139°46'0 0.0
2014-Sep-09 01:31N 35°38' E 139°46'0 0.0
2014-Sep-09 00:31N 35°38' E 139°46'0 0.0
2014-Sep-08 23:28N 35°38' E 139°46'0 0.1
2014-Sep-08 22:33N 35°38' E 139°46'8 7.4
2014-Sep-08 21:31N 35°34' E 139°53'0 0.0
2014-Sep-08 20:28N 35°34' E 139°53'0 0.0
2014-Sep-08 19:31N 35°34' E 139°53'0 0.1
2014-Sep-08 18:31N 35°34' E 139°53'1313.2
2014-Sep-08 17:33N 35°23' E 139°46'1211.8
2014-Sep-08 16:33N 35°11' E 139°47'1818.2
2014-Sep-08 15:34N 34°57' E 139°32'2419.4
2014-Sep-08 14:20N 34°41' E 139°11'3217.8
2014-Sep-08 12:33N 34°30' E 138°34'180 7.1
2014-Sep-07 11:13N 34°01' E 134°59'1218.7
2014-Sep-07 10:33N 34°13' E 134°58'1616.2
2014-Sep-07 09:33N 34°29' E 135°03'9 8.6
2014-Sep-07 08:34N 34°37' E 134°60'1716.8
2014-Sep-07 07:31N 34°30' E 134°40'  

Dump ship's entire track history